sensor_id;sensor_type;location;lat;lon;timestamp;P1;durP1;ratioP1;P2;durP2;ratioP2
62903;SDS011;49000;50.698;13.322;2023-07-30T00:00:44;3.07;;;1.00;;
62903;SDS011;49000;50.698;13.322;2023-07-30T00:03:10;2.50;;;1.00;;
62903;SDS011;49000;50.698;13.322;2023-07-30T00:05:35;2.03;;;1.03;;
62903;SDS011;49000;50.698;13.322;2023-07-30T00:08:01;3.70;;;1.13;;
62903;SDS011;49000;50.698;13.322;2023-07-30T00:10:27;1.40;;;1.10;;
62903;SDS011;49000;50.698;13.322;2023-07-30T00:12:52;5.27;;;1.07;;
62903;SDS011;49000;50.698;13.322;2023-07-30T00:15:18;12.23;;;1.47;;
62903;SDS011;49000;50.698;13.322;2023-07-30T00:17:44;2.57;;;1.40;;
62903;SDS011;49000;50.698;13.322;2023-07-30T00:20:09;2.57;;;1.40;;
62903;SDS011;49000;50.698;13.322;2023-07-30T00:22:35;2.73;;;1.30;;
62903;SDS011;49000;50.698;13.322;2023-07-30T00:25:00;2.07;;;1.30;;
62903;SDS011;49000;50.698;13.322;2023-07-30T00:27:26;3.87;;;1.50;;
62903;SDS011;49000;50.698;13.322;2023-07-30T00:29:52;1.50;;;1.30;;
62903;SDS011;49000;50.698;13.322;2023-07-30T00:32:17;2.90;;;1.30;;
62903;SDS011;49000;50.698;13.322;2023-07-30T00:34:43;4.73;;;1.53;;
62903;SDS011;49000;50.698;13.322;2023-07-30T00:37:08;3.43;;;1.37;;
62903;SDS011;49000;50.698;13.322;2023-07-30T00:39:34;2.27;;;1.43;;
62903;SDS011;49000;50.698;13.322;2023-07-30T00:42:00;2.37;;;1.73;;
62903;SDS011;49000;50.698;13.322;2023-07-30T00:44:25;2.53;;;1.30;;
62903;SDS011;49000;50.698;13.322;2023-07-30T00:46:51;2.20;;;1.63;;
62903;SDS011;49000;50.698;13.322;2023-07-30T00:49:17;1.90;;;1.23;;
62903;SDS011;49000;50.698;13.322;2023-07-30T00:51:43;2.00;;;1.20;;
62903;SDS011;49000;50.698;13.322;2023-07-30T00:54:10;2.70;;;1.40;;
62903;SDS011;49000;50.698;13.322;2023-07-30T00:56:35;4.47;;;1.60;;
62903;SDS011;49000;50.698;13.322;2023-07-30T00:59:01;6.27;;;1.57;;
62903;SDS011;49000;50.698;13.322;2023-07-30T01:01:27;2.67;;;1.30;;
62903;SDS011;49000;50.698;13.322;2023-07-30T01:03:54;1.90;;;1.40;;
62903;SDS011;49000;50.698;13.322;2023-07-30T01:06:20;2.60;;;1.50;;
62903;SDS011;49000;50.698;13.322;2023-07-30T01:08:46;1.87;;;1.33;;
62903;SDS011;49000;50.698;13.322;2023-07-30T01:11:12;3.03;;;1.60;;
62903;SDS011;49000;50.698;13.322;2023-07-30T01:13:40;3.50;;;1.70;;
62903;SDS011;49000;50.698;13.322;2023-07-30T01:16:07;5.10;;;1.97;;
62903;SDS011;49000;50.698;13.322;2023-07-30T01:18:32;3.37;;;1.60;;
62903;SDS011;49000;50.698;13.322;2023-07-30T01:20:58;3.20;;;1.67;;
62903;SDS011;49000;50.698;13.322;2023-07-30T01:23:25;3.10;;;1.70;;
62903;SDS011;49000;50.698;13.322;2023-07-30T01:25:54;3.60;;;1.50;;
62903;SDS011;49000;50.698;13.322;2023-07-30T01:28:35;2.07;;;1.50;;
62903;SDS011;49000;50.698;13.322;2023-07-30T01:31:03;4.57;;;1.60;;
62903;SDS011;49000;50.698;13.322;2023-07-30T01:33:31;2.43;;;1.50;;
62903;SDS011;49000;50.698;13.322;2023-07-30T01:35:57;2.03;;;1.60;;
62903;SDS011;49000;50.698;13.322;2023-07-30T01:38:25;3.77;;;1.53;;
62903;SDS011;49000;50.698;13.322;2023-07-30T01:40:51;3.10;;;2.00;;
62903;SDS011;49000;50.698;13.322;2023-07-30T01:43:17;3.77;;;1.57;;
62903;SDS011;49000;50.698;13.322;2023-07-30T01:45:43;2.90;;;1.60;;
62903;SDS011;49000;50.698;13.322;2023-07-30T01:48:08;4.83;;;1.87;;
62903;SDS011;49000;50.698;13.322;2023-07-30T01:50:34;3.47;;;2.07;;
62903;SDS011;49000;50.698;13.322;2023-07-30T01:52:59;6.40;;;1.93;;
62903;SDS011;49000;50.698;13.322;2023-07-30T01:55:25;4.17;;;1.70;;
62903;SDS011;49000;50.698;13.322;2023-07-30T01:57:50;3.30;;;1.43;;
62903;SDS011;49000;50.698;13.322;2023-07-30T02:00:16;3.33;;;1.57;;
62903;SDS011;49000;50.698;13.322;2023-07-30T02:02:41;3.30;;;2.00;;
62903;SDS011;49000;50.698;13.322;2023-07-30T02:05:06;6.13;;;1.80;;
62903;SDS011;49000;50.698;13.322;2023-07-30T02:07:32;2.43;;;1.80;;
62903;SDS011;49000;50.698;13.322;2023-07-30T02:09:58;4.43;;;1.70;;
62903;SDS011;49000;50.698;13.322;2023-07-30T02:12:23;4.10;;;1.67;;
62903;SDS011;49000;50.698;13.322;2023-07-30T02:14:49;4.40;;;1.87;;
62903;SDS011;49000;50.698;13.322;2023-07-30T02:17:14;7.37;;;1.80;;
62903;SDS011;49000;50.698;13.322;2023-07-30T02:19:40;2.53;;;1.50;;
62903;SDS011;49000;50.698;13.322;2023-07-30T02:22:07;4.57;;;2.00;;
62903;SDS011;49000;50.698;13.322;2023-07-30T02:24:32;1.77;;;1.43;;
62903;SDS011;49000;50.698;13.322;2023-07-30T02:26:57;3.53;;;1.90;;
62903;SDS011;49000;50.698;13.322;2023-07-30T02:29:23;6.13;;;2.63;;
62903;SDS011;49000;50.698;13.322;2023-07-30T02:31:48;4.50;;;2.20;;
62903;SDS011;49000;50.698;13.322;2023-07-30T02:34:14;2.20;;;1.80;;
62903;SDS011;49000;50.698;13.322;2023-07-30T02:36:39;2.07;;;1.60;;
62903;SDS011;49000;50.698;13.322;2023-07-30T02:39:05;2.37;;;1.50;;
62903;SDS011;49000;50.698;13.322;2023-07-30T02:41:30;2.70;;;1.50;;
62903;SDS011;49000;50.698;13.322;2023-07-30T02:43:56;3.53;;;1.87;;
62903;SDS011;49000;50.698;13.322;2023-07-30T02:46:21;1.60;;;1.43;;
62903;SDS011;49000;50.698;13.322;2023-07-30T02:48:47;2.97;;;1.90;;
62903;SDS011;49000;50.698;13.322;2023-07-30T02:51:12;3.93;;;1.93;;
62903;SDS011;49000;50.698;13.322;2023-07-30T02:53:38;4.23;;;2.83;;
62903;SDS011;49000;50.698;13.322;2023-07-30T02:56:03;3.10;;;2.00;;
62903;SDS011;49000;50.698;13.322;2023-07-30T02:58:29;2.97;;;1.63;;
62903;SDS011;49000;50.698;13.322;2023-07-30T03:00:54;3.83;;;1.67;;
62903;SDS011;49000;50.698;13.322;2023-07-30T03:03:20;5.17;;;2.20;;
62903;SDS011;49000;50.698;13.322;2023-07-30T03:05:46;3.40;;;1.67;;
62903;SDS011;49000;50.698;13.322;2023-07-30T03:08:11;2.80;;;1.77;;
62903;SDS011;49000;50.698;13.322;2023-07-30T03:10:37;3.97;;;1.60;;
62903;SDS011;49000;50.698;13.322;2023-07-30T03:13:03;3.13;;;2.10;;
62903;SDS011;49000;50.698;13.322;2023-07-30T03:15:28;1.93;;;1.73;;
62903;SDS011;49000;50.698;13.322;2023-07-30T03:17:54;3.50;;;1.80;;
62903;SDS011;49000;50.698;13.322;2023-07-30T03:20:19;1.77;;;1.40;;
62903;SDS011;49000;50.698;13.322;2023-07-30T03:22:45;3.20;;;1.60;;
62903;SDS011;49000;50.698;13.322;2023-07-30T03:25:10;3.07;;;1.57;;
62903;SDS011;49000;50.698;13.322;2023-07-30T03:27:36;1.80;;;1.40;;
62903;SDS011;49000;50.698;13.322;2023-07-30T03:30:02;4.40;;;1.83;;
62903;SDS011;49000;50.698;13.322;2023-07-30T03:32:27;2.50;;;1.80;;
62903;SDS011;49000;50.698;13.322;2023-07-30T03:34:53;3.80;;;2.00;;
62903;SDS011;49000;50.698;13.322;2023-07-30T03:37:18;3.03;;;1.73;;
62903;SDS011;49000;50.698;13.322;2023-07-30T03:39:44;2.97;;;1.60;;
62903;SDS011;49000;50.698;13.322;2023-07-30T03:42:09;4.03;;;1.60;;
62903;SDS011;49000;50.698;13.322;2023-07-30T03:44:35;1.97;;;1.60;;
62903;SDS011;49000;50.698;13.322;2023-07-30T03:47:01;3.93;;;1.90;;
62903;SDS011;49000;50.698;13.322;2023-07-30T03:49:26;1.87;;;1.53;;
62903;SDS011;49000;50.698;13.322;2023-07-30T03:51:52;2.13;;;1.60;;
62903;SDS011;49000;50.698;13.322;2023-07-30T03:54:17;1.70;;;1.53;;
62903;SDS011;49000;50.698;13.322;2023-07-30T03:56:43;2.73;;;1.50;;
62903;SDS011;49000;50.698;13.322;2023-07-30T03:59:08;4.03;;;1.63;;
62903;SDS011;49000;50.698;13.322;2023-07-30T04:01:34;1.93;;;1.70;;
62903;SDS011;49000;50.698;13.322;2023-07-30T04:03:59;2.30;;;1.53;;
62903;SDS011;49000;50.698;13.322;2023-07-30T04:06:25;1.50;;;1.40;;
62903;SDS011;49000;50.698;13.322;2023-07-30T04:08:50;3.80;;;1.67;;
62903;SDS011;49000;50.698;13.322;2023-07-30T04:11:16;2.63;;;1.70;;
62903;SDS011;49000;50.698;13.322;2023-07-30T04:13:41;2.37;;;1.80;;
62903;SDS011;49000;50.698;13.322;2023-07-30T04:16:07;5.17;;;1.90;;
62903;SDS011;49000;50.698;13.322;2023-07-30T04:18:33;2.57;;;1.70;;
62903;SDS011;49000;50.698;13.322;2023-07-30T04:20:58;2.17;;;1.60;;
62903;SDS011;49000;50.698;13.322;2023-07-30T04:23:24;3.40;;;2.00;;
62903;SDS011;49000;50.698;13.322;2023-07-30T04:25:49;2.70;;;1.40;;
62903;SDS011;49000;50.698;13.322;2023-07-30T04:28:15;2.10;;;1.90;;
62903;SDS011;49000;50.698;13.322;2023-07-30T04:30:41;1.90;;;1.60;;
62903;SDS011;49000;50.698;13.322;2023-07-30T04:33:06;5.30;;;1.90;;
62903;SDS011;49000;50.698;13.322;2023-07-30T04:35:32;4.90;;;1.80;;
62903;SDS011;49000;50.698;13.322;2023-07-30T04:37:57;3.23;;;1.80;;
62903;SDS011;49000;50.698;13.322;2023-07-30T04:40:23;2.50;;;2.00;;
62903;SDS011;49000;50.698;13.322;2023-07-30T04:42:48;2.70;;;2.07;;
62903;SDS011;49000;50.698;13.322;2023-07-30T04:45:14;3.60;;;2.60;;
62903;SDS011;49000;50.698;13.322;2023-07-30T04:47:39;6.70;;;3.10;;
62903;SDS011;49000;50.698;13.322;2023-07-30T04:50:05;4.77;;;2.87;;
62903;SDS011;49000;50.698;13.322;2023-07-30T04:52:31;7.93;;;5.60;;
62903;SDS011;49000;50.698;13.322;2023-07-30T04:54:56;5.63;;;4.37;;
62903;SDS011;49000;50.698;13.322;2023-07-30T04:57:22;4.17;;;3.77;;
62903;SDS011;49000;50.698;13.322;2023-07-30T04:59:47;7.47;;;5.77;;
62903;SDS011;49000;50.698;13.322;2023-07-30T05:02:13;8.07;;;4.27;;
62903;SDS011;49000;50.698;13.322;2023-07-30T05:04:38;9.40;;;5.03;;
62903;SDS011;49000;50.698;13.322;2023-07-30T05:07:04;5.73;;;4.60;;
62903;SDS011;49000;50.698;13.322;2023-07-30T05:09:29;5.17;;;4.43;;
62903;SDS011;49000;50.698;13.322;2023-07-30T05:11:55;5.03;;;4.40;;
62903;SDS011;49000;50.698;13.322;2023-07-30T05:14:21;4.23;;;3.73;;
62903;SDS011;49000;50.698;13.322;2023-07-30T05:16:46;5.53;;;3.90;;
62903;SDS011;49000;50.698;13.322;2023-07-30T05:19:11;5.50;;;3.33;;
62903;SDS011;49000;50.698;13.322;2023-07-30T05:21:37;4.07;;;3.23;;
62903;SDS011;49000;50.698;13.322;2023-07-30T05:24:03;3.57;;;2.77;;
62903;SDS011;49000;50.698;13.322;2023-07-30T05:26:29;5.33;;;3.20;;
62903;SDS011;49000;50.698;13.322;2023-07-30T05:28:54;4.40;;;2.53;;
62903;SDS011;49000;50.698;13.322;2023-07-30T05:31:20;3.50;;;2.67;;
62903;SDS011;49000;50.698;13.322;2023-07-30T05:33:46;3.70;;;2.43;;
62903;SDS011;49000;50.698;13.322;2023-07-30T05:36:11;3.17;;;2.80;;
62903;SDS011;49000;50.698;13.322;2023-07-30T05:38:37;2.97;;;2.37;;
62903;SDS011;49000;50.698;13.322;2023-07-30T05:41:02;4.20;;;2.53;;
62903;SDS011;49000;50.698;13.322;2023-07-30T05:43:28;3.43;;;2.60;;
62903;SDS011;49000;50.698;13.322;2023-07-30T05:45:53;2.80;;;2.60;;
62903;SDS011;49000;50.698;13.322;2023-07-30T05:48:19;4.23;;;2.20;;
62903;SDS011;49000;50.698;13.322;2023-07-30T05:50:44;3.37;;;2.40;;
62903;SDS011;49000;50.698;13.322;2023-07-30T05:53:10;5.10;;;2.70;;
62903;SDS011;49000;50.698;13.322;2023-07-30T05:55:35;3.53;;;2.63;;
62903;SDS011;49000;50.698;13.322;2023-07-30T05:58:01;2.93;;;2.40;;
62903;SDS011;49000;50.698;13.322;2023-07-30T06:00:26;3.47;;;2.60;;
62903;SDS011;49000;50.698;13.322;2023-07-30T06:02:52;3.63;;;2.57;;
62903;SDS011;49000;50.698;13.322;2023-07-30T06:05:17;3.00;;;2.50;;
62903;SDS011;49000;50.698;13.322;2023-07-30T06:07:43;3.27;;;2.40;;
62903;SDS011;49000;50.698;13.322;2023-07-30T06:10:08;4.17;;;2.40;;
62903;SDS011;49000;50.698;13.322;2023-07-30T06:12:34;4.70;;;2.10;;
62903;SDS011;49000;50.698;13.322;2023-07-30T06:14:59;3.23;;;2.43;;
62903;SDS011;49000;50.698;13.322;2023-07-30T06:17:25;2.93;;;2.50;;
62903;SDS011;49000;50.698;13.322;2023-07-30T06:19:50;2.90;;;2.53;;
62903;SDS011;49000;50.698;13.322;2023-07-30T06:22:16;2.90;;;2.33;;
62903;SDS011;49000;50.698;13.322;2023-07-30T06:24:41;2.30;;;2.10;;
62903;SDS011;49000;50.698;13.322;2023-07-30T06:27:07;3.43;;;2.67;;
62903;SDS011;49000;50.698;13.322;2023-07-30T06:29:34;2.40;;;2.20;;
62903;SDS011;49000;50.698;13.322;2023-07-30T06:32:00;2.83;;;2.55;;
62903;SDS011;49000;50.698;13.322;2023-07-30T06:34:26;4.67;;;2.20;;
62903;SDS011;49000;50.698;13.322;2023-07-30T06:36:51;4.13;;;2.40;;
62903;SDS011;49000;50.698;13.322;2023-07-30T06:39:17;2.80;;;2.00;;
62903;SDS011;49000;50.698;13.322;2023-07-30T06:41:42;2.20;;;2.00;;
62903;SDS011;49000;50.698;13.322;2023-07-30T06:44:08;3.20;;;2.15;;
62903;SDS011;49000;50.698;13.322;2023-07-30T06:46:33;2.95;;;2.25;;
62903;SDS011;49000;50.698;13.322;2023-07-30T06:48:59;2.88;;;2.40;;
62903;SDS011;49000;50.698;13.322;2023-07-30T06:51:24;3.13;;;2.55;;
62903;SDS011;49000;50.698;13.322;2023-07-30T06:53:50;2.45;;;2.25;;
62903;SDS011;49000;50.698;13.322;2023-07-30T06:56:16;2.72;;;2.42;;
62903;SDS011;49000;50.698;13.322;2023-07-30T06:58:41;4.22;;;2.38;;
62903;SDS011;49000;50.698;13.322;2023-07-30T07:01:06;2.38;;;2.17;;
62903;SDS011;49000;50.698;13.322;2023-07-30T07:03:32;3.53;;;2.25;;
62903;SDS011;49000;50.698;13.322;2023-07-30T07:05:57;2.50;;;2.30;;
62903;SDS011;49000;50.698;13.322;2023-07-30T07:08:23;3.53;;;2.45;;
62903;SDS011;49000;50.698;13.322;2023-07-30T07:10:49;2.40;;;2.20;;
62903;SDS011;49000;50.698;13.322;2023-07-30T07:13:14;2.45;;;2.20;;
62903;SDS011;49000;50.698;13.322;2023-07-30T07:15:43;2.28;;;2.08;;
62903;SDS011;49000;50.698;13.322;2023-07-30T07:18:09;4.78;;;2.60;;
62903;SDS011;49000;50.698;13.322;2023-07-30T07:20:35;4.95;;;2.35;;
62903;SDS011;49000;50.698;13.322;2023-07-30T07:23:02;2.20;;;2.05;;
62903;SDS011;49000;50.698;13.322;2023-07-30T07:25:27;3.80;;;2.22;;
62903;SDS011;49000;50.698;13.322;2023-07-30T07:27:53;3.80;;;2.45;;
62903;SDS011;49000;50.698;13.322;2023-07-30T07:30:18;5.25;;;2.20;;
62903;SDS011;49000;50.698;13.322;2023-07-30T07:32:44;5.47;;;2.33;;
62903;SDS011;49000;50.698;13.322;2023-07-30T07:35:09;4.95;;;1.90;;
62903;SDS011;49000;50.698;13.322;2023-07-30T07:37:35;3.50;;;2.22;;
62903;SDS011;49000;50.698;13.322;2023-07-30T07:40:00;2.65;;;2.10;;
62903;SDS011;49000;50.698;13.322;2023-07-30T07:42:28;3.30;;;2.30;;
62903;SDS011;49000;50.698;13.322;2023-07-30T07:44:54;2.35;;;2.10;;
62903;SDS011;49000;50.698;13.322;2023-07-30T07:47:20;2.33;;;2.13;;
62903;SDS011;49000;50.698;13.322;2023-07-30T07:49:45;4.35;;;2.50;;
62903;SDS011;49000;50.698;13.322;2023-07-30T07:52:11;3.55;;;2.50;;
62903;SDS011;49000;50.698;13.322;2023-07-30T07:54:36;2.80;;;2.33;;
62903;SDS011;49000;50.698;13.322;2023-07-30T07:57:02;3.58;;;2.65;;
62903;SDS011;49000;50.698;13.322;2023-07-30T07:59:28;4.25;;;2.13;;
62903;SDS011;49000;50.698;13.322;2023-07-30T08:01:53;4.00;;;2.50;;
62903;SDS011;49000;50.698;13.322;2023-07-30T08:04:19;3.03;;;2.10;;
62903;SDS011;49000;50.698;13.322;2023-07-30T08:06:46;3.10;;;2.40;;
62903;SDS011;49000;50.698;13.322;2023-07-30T08:09:12;2.17;;;1.98;;
62903;SDS011;49000;50.698;13.322;2023-07-30T08:11:37;2.83;;;2.55;;
62903;SDS011;49000;50.698;13.322;2023-07-30T08:14:03;2.53;;;2.17;;
62903;SDS011;49000;50.698;13.322;2023-07-30T08:16:28;1.95;;;1.83;;
62903;SDS011;49000;50.698;13.322;2023-07-30T08:18:54;2.33;;;2.10;;
62903;SDS011;49000;50.698;13.322;2023-07-30T08:21:19;2.35;;;1.90;;
62903;SDS011;49000;50.698;13.322;2023-07-30T08:23:45;4.32;;;2.08;;
62903;SDS011;49000;50.698;13.322;2023-07-30T08:26:11;2.72;;;2.00;;
62903;SDS011;49000;50.698;13.322;2023-07-30T08:28:36;2.45;;;2.25;;
62903;SDS011;49000;50.698;13.322;2023-07-30T08:31:02;4.35;;;2.47;;
62903;SDS011;49000;50.698;13.322;2023-07-30T08:33:28;4.13;;;2.40;;
62903;SDS011;49000;50.698;13.322;2023-07-30T08:35:58;3.15;;;2.15;;
62903;SDS011;49000;50.698;13.322;2023-07-30T08:38:25;2.35;;;2.10;;
62903;SDS011;49000;50.698;13.322;2023-07-30T08:40:51;3.63;;;2.20;;
62903;SDS011;49000;50.698;13.322;2023-07-30T08:43:18;2.40;;;2.20;;
62903;SDS011;49000;50.698;13.322;2023-07-30T08:45:44;2.25;;;2.00;;
62903;SDS011;49000;50.698;13.322;2023-07-30T08:48:09;3.05;;;2.05;;
62903;SDS011;49000;50.698;13.322;2023-07-30T08:50:35;2.55;;;2.08;;
62903;SDS011;49000;50.698;13.322;2023-07-30T08:53:02;2.22;;;2.03;;
62903;SDS011;49000;50.698;13.322;2023-07-30T08:55:28;2.55;;;2.10;;
62903;SDS011;49000;50.698;13.322;2023-07-30T08:57:57;3.13;;;1.88;;
62903;SDS011;49000;50.698;13.322;2023-07-30T09:00:25;2.47;;;2.28;;
62903;SDS011;49000;50.698;13.322;2023-07-30T09:02:56;3.38;;;2.25;;
62903;SDS011;49000;50.698;13.322;2023-07-30T09:05:25;2.88;;;2.30;;
62903;SDS011;49000;50.698;13.322;2023-07-30T09:07:54;2.45;;;2.15;;
62903;SDS011;49000;50.698;13.322;2023-07-30T09:10:20;3.65;;;2.55;;
62903;SDS011;49000;50.698;13.322;2023-07-30T09:12:45;2.63;;;2.22;;
62903;SDS011;49000;50.698;13.322;2023-07-30T09:15:18;2.30;;;2.10;;
62903;SDS011;49000;50.698;13.322;2023-07-30T09:17:45;2.78;;;2.10;;
62903;SDS011;49000;50.698;13.322;2023-07-30T09:20:10;2.20;;;1.98;;
62903;SDS011;49000;50.698;13.322;2023-07-30T09:22:36;2.97;;;1.90;;
62903;SDS011;49000;50.698;13.322;2023-07-30T09:25:04;3.53;;;2.30;;
62903;SDS011;49000;50.698;13.322;2023-07-30T09:27:30;4.47;;;2.58;;
62903;SDS011;49000;50.698;13.322;2023-07-30T09:29:57;2.28;;;2.08;;
62903;SDS011;49000;50.698;13.322;2023-07-30T09:32:28;3.03;;;2.72;;
62903;SDS011;49000;50.698;13.322;2023-07-30T09:34:56;2.60;;;2.08;;
62903;SDS011;49000;50.698;13.322;2023-07-30T09:37:36;3.17;;;2.28;;
62903;SDS011;49000;50.698;13.322;2023-07-30T09:40:10;3.35;;;2.10;;
62903;SDS011;49000;50.698;13.322;2023-07-30T09:42:37;2.20;;;2.00;;
62903;SDS011;49000;50.698;13.322;2023-07-30T09:45:05;2.50;;;2.17;;
62903;SDS011;49000;50.698;13.322;2023-07-30T09:47:36;2.40;;;2.20;;
62903;SDS011;49000;50.698;13.322;2023-07-30T09:50:02;2.17;;;1.98;;
62903;SDS011;49000;50.698;13.322;2023-07-30T09:52:29;2.55;;;2.10;;
62903;SDS011;49000;50.698;13.322;2023-07-30T09:54:55;2.75;;;1.80;;
62903;SDS011;49000;50.698;13.322;2023-07-30T09:57:22;2.10;;;1.80;;
62903;SDS011;49000;50.698;13.322;2023-07-30T09:59:48;2.35;;;1.77;;
62903;SDS011;49000;50.698;13.322;2023-07-30T10:02:14;2.88;;;1.90;;
62903;SDS011;49000;50.698;13.322;2023-07-30T10:04:42;3.20;;;1.73;;
62903;SDS011;49000;50.698;13.322;2023-07-30T10:07:10;8.73;;;2.30;;
62903;SDS011;49000;50.698;13.322;2023-07-30T10:09:42;2.30;;;2.00;;
62903;SDS011;49000;50.698;13.322;2023-07-30T10:12:11;1.92;;;1.77;;
62903;SDS011;49000;50.698;13.322;2023-07-30T10:14:38;4.05;;;2.20;;
62903;SDS011;49000;50.698;13.322;2023-07-30T10:17:04;3.45;;;2.05;;
62903;SDS011;49000;50.698;13.322;2023-07-30T10:19:30;2.97;;;2.10;;
62903;SDS011;49000;50.698;13.322;2023-07-30T10:24:37;2.28;;;1.80;;
62903;SDS011;49000;50.698;13.322;2023-07-30T10:27:07;2.03;;;1.83;;
62903;SDS011;49000;50.698;13.322;2023-07-30T10:29:34;1.80;;;1.70;;
62903;SDS011;49000;50.698;13.322;2023-07-30T10:32:01;2.13;;;1.83;;
62903;SDS011;49000;50.698;13.322;2023-07-30T10:34:43;1.67;;;1.50;;
62903;SDS011;49000;50.698;13.322;2023-07-30T10:37:09;1.83;;;1.50;;
62903;SDS011;49000;50.698;13.322;2023-07-30T10:39:35;3.65;;;1.67;;
62903;SDS011;49000;50.698;13.322;2023-07-30T10:42:01;1.20;;;1.10;;
62903;SDS011;49000;50.698;13.322;2023-07-30T10:44:27;1.50;;;1.40;;
62903;SDS011;49000;50.698;13.322;2023-07-30T10:46:56;2.42;;;2.10;;
62903;SDS011;49000;50.698;13.322;2023-07-30T10:49:22;3.53;;;1.50;;
62903;SDS011;49000;50.698;13.322;2023-07-30T10:51:48;1.60;;;1.50;;
62903;SDS011;49000;50.698;13.322;2023-07-30T10:54:16;2.67;;;1.40;;
62903;SDS011;49000;50.698;13.322;2023-07-30T10:56:42;1.73;;;1.30;;
62903;SDS011;49000;50.698;13.322;2023-07-30T10:59:07;2.30;;;1.60;;
62903;SDS011;49000;50.698;13.322;2023-07-30T11:01:40;1.75;;;1.60;;
62903;SDS011;49000;50.698;13.322;2023-07-30T11:04:10;1.40;;;1.30;;
62903;SDS011;49000;50.698;13.322;2023-07-30T11:06:37;1.95;;;1.75;;
62903;SDS011;49000;50.698;13.322;2023-07-30T11:09:03;2.08;;;1.88;;
62903;SDS011;49000;50.698;13.322;2023-07-30T11:11:30;1.98;;;1.70;;
62903;SDS011;49000;50.698;13.322;2023-07-30T11:13:56;2.33;;;1.58;;
62903;SDS011;49000;50.698;13.322;2023-07-30T11:16:22;1.10;;;1.00;;
62903;SDS011;49000;50.698;13.322;2023-07-30T11:18:47;3.72;;;1.55;;
62903;SDS011;49000;50.698;13.322;2023-07-30T11:21:14;1.02;;;0.93;;
62903;SDS011;49000;50.698;13.322;2023-07-30T11:23:41;1.13;;;1.02;;
62903;SDS011;49000;50.698;13.322;2023-07-30T11:26:08;2.38;;;1.10;;
62903;SDS011;49000;50.698;13.322;2023-07-30T11:28:37;0.80;;;0.77;;
62903;SDS011;49000;50.698;13.322;2023-07-30T11:31:22;0.60;;;0.60;;
62903;SDS011;49000;50.698;13.322;2023-07-30T11:33:51;0.70;;;0.70;;
62903;SDS011;49000;50.698;13.322;2023-07-30T11:36:18;2.42;;;0.90;;
62903;SDS011;49000;50.698;13.322;2023-07-30T11:38:46;1.95;;;0.63;;
62903;SDS011;49000;50.698;13.322;2023-07-30T11:41:12;0.40;;;0.40;;
62903;SDS011;49000;50.698;13.322;2023-07-30T11:43:40;0.70;;;0.60;;
62903;SDS011;49000;50.698;13.322;2023-07-30T11:46:07;0.85;;;0.85;;
62903;SDS011;49000;50.698;13.322;2023-07-30T11:48:35;1.17;;;0.80;;
62903;SDS011;49000;50.698;13.322;2023-07-30T11:51:01;1.10;;;1.00;;
62903;SDS011;49000;50.698;13.322;2023-07-30T11:56:22;1.25;;;0.80;;
62903;SDS011;49000;50.698;13.322;2023-07-30T11:58:57;3.55;;;1.02;;
62903;SDS011;49000;50.698;13.322;2023-07-30T12:01:24;0.98;;;0.98;;
62903;SDS011;49000;50.698;13.322;2023-07-30T12:03:58;0.95;;;0.85;;
62903;SDS011;49000;50.698;13.322;2023-07-30T12:06:37;1.15;;;1.00;;
62903;SDS011;49000;50.698;13.322;2023-07-30T12:09:14;1.85;;;0.90;;
62903;SDS011;49000;50.698;13.322;2023-07-30T12:11:51;1.00;;;0.90;;
62903;SDS011;49000;50.698;13.322;2023-07-30T12:14:18;0.80;;;0.80;;
62903;SDS011;49000;50.698;13.322;2023-07-30T12:16:46;1.95;;;0.98;;
62903;SDS011;49000;50.698;13.322;2023-07-30T12:19:12;1.48;;;0.98;;
62903;SDS011;49000;50.698;13.322;2023-07-30T12:21:37;1.45;;;1.00;;
62903;SDS011;49000;50.698;13.322;2023-07-30T12:24:03;1.52;;;1.00;;
62903;SDS011;49000;50.698;13.322;2023-07-30T12:26:29;1.08;;;1.00;;
62903;SDS011;49000;50.698;13.322;2023-07-30T12:28:55;1.63;;;0.70;;
62903;SDS011;49000;50.698;13.322;2023-07-30T12:31:20;1.30;;;0.90;;
62903;SDS011;49000;50.698;13.322;2023-07-30T12:33:46;0.82;;;0.82;;
62903;SDS011;49000;50.698;13.322;2023-07-30T12:36:11;0.80;;;0.77;;
62903;SDS011;49000;50.698;13.322;2023-07-30T12:38:37;1.08;;;1.00;;
62903;SDS011;49000;50.698;13.322;2023-07-30T12:41:02;1.08;;;0.98;;
62903;SDS011;49000;50.698;13.322;2023-07-30T12:43:28;1.45;;;0.95;;
62903;SDS011;49000;50.698;13.322;2023-07-30T12:45:53;1.00;;;0.90;;
62903;SDS011;49000;50.698;13.322;2023-07-30T12:48:19;1.65;;;0.88;;
62903;SDS011;49000;50.698;13.322;2023-07-30T12:50:45;2.03;;;1.20;;
62903;SDS011;49000;50.698;13.322;2023-07-30T12:53:10;1.42;;;0.93;;
62903;SDS011;49000;50.698;13.322;2023-07-30T12:55:36;0.90;;;0.90;;
62903;SDS011;49000;50.698;13.322;2023-07-30T12:58:03;1.77;;;1.00;;
62903;SDS011;49000;50.698;13.322;2023-07-30T13:00:28;1.15;;;1.08;;
62903;SDS011;49000;50.698;13.322;2023-07-30T13:02:54;1.52;;;1.00;;
62903;SDS011;49000;50.698;13.322;2023-07-30T13:05:21;1.40;;;1.00;;
62903;SDS011;49000;50.698;13.322;2023-07-30T13:07:47;2.22;;;1.02;;
62903;SDS011;49000;50.698;13.322;2023-07-30T13:10:13;1.20;;;1.10;;
62903;SDS011;49000;50.698;13.322;2023-07-30T13:12:39;1.25;;;1.05;;
62903;SDS011;49000;50.698;13.322;2023-07-30T13:15:05;1.83;;;1.10;;
62903;SDS011;49000;50.698;13.322;2023-07-30T13:17:31;1.20;;;1.10;;
62903;SDS011;49000;50.698;13.322;2023-07-30T13:19:57;1.20;;;1.00;;
62903;SDS011;49000;50.698;13.322;2023-07-30T13:22:22;1.30;;;1.20;;
62903;SDS011;49000;50.698;13.322;2023-07-30T13:24:48;1.30;;;1.20;;
62903;SDS011;49000;50.698;13.322;2023-07-30T13:27:14;6.75;;;1.00;;
62903;SDS011;49000;50.698;13.322;2023-07-30T13:29:39;1.25;;;1.15;;
62903;SDS011;49000;50.698;13.322;2023-07-30T13:32:05;1.20;;;1.10;;
62903;SDS011;49000;50.698;13.322;2023-07-30T13:34:31;2.13;;;1.08;;
62903;SDS011;49000;50.698;13.322;2023-07-30T13:36:57;1.38;;;1.25;;
62903;SDS011;49000;50.698;13.322;2023-07-30T13:39:22;3.40;;;1.20;;
62903;SDS011;49000;50.698;13.322;2023-07-30T13:41:48;1.45;;;1.35;;
62903;SDS011;49000;50.698;13.322;2023-07-30T13:44:13;1.20;;;0.90;;
62903;SDS011;49000;50.698;13.322;2023-07-30T13:46:39;1.33;;;1.23;;
62903;SDS011;49000;50.698;13.322;2023-07-30T13:49:05;1.35;;;1.25;;
62903;SDS011;49000;50.698;13.322;2023-07-30T13:51:31;1.30;;;1.20;;
62903;SDS011;49000;50.698;13.322;2023-07-30T13:54:00;1.42;;;1.30;;
62903;SDS011;49000;50.698;13.322;2023-07-30T13:56:26;1.63;;;1.17;;
62903;SDS011;49000;50.698;13.322;2023-07-30T13:58:53;1.33;;;1.10;;
62903;SDS011;49000;50.698;13.322;2023-07-30T14:01:18;2.00;;;1.20;;
62903;SDS011;49000;50.698;13.322;2023-07-30T14:03:44;1.85;;;1.15;;
62903;SDS011;49000;50.698;13.322;2023-07-30T14:06:09;1.70;;;1.33;;
62903;SDS011;49000;50.698;13.322;2023-07-30T14:08:36;1.20;;;1.10;;
62903;SDS011;49000;50.698;13.322;2023-07-30T14:11:01;1.45;;;1.20;;
62903;SDS011;49000;50.698;13.322;2023-07-30T14:13:27;1.73;;;1.00;;
62903;SDS011;49000;50.698;13.322;2023-07-30T14:15:52;1.15;;;1.05;;
62903;SDS011;49000;50.698;13.322;2023-07-30T14:18:18;1.70;;;1.20;;
62903;SDS011;49000;50.698;13.322;2023-07-30T14:20:43;1.17;;;1.08;;
62903;SDS011;49000;50.698;13.322;2023-07-30T14:23:09;1.33;;;1.10;;
62903;SDS011;49000;50.698;13.322;2023-07-30T14:25:36;2.67;;;1.00;;
62903;SDS011;49000;50.698;13.322;2023-07-30T14:28:02;1.20;;;0.90;;
62903;SDS011;49000;50.698;13.322;2023-07-30T14:30:27;0.85;;;0.75;;
62903;SDS011;49000;50.698;13.322;2023-07-30T14:32:53;1.70;;;0.88;;